Rehoboth Beach, Delaware
Current Conditions -  °F | °C
As of 10:54 AM on Thursday 30 Oct 2014 (Local Time) from KGED Reporting Station
Broken Clouds Broken Clouds  
Wind Chill: 56°   Ceiling: 7000
Heat Index: 56°   Visibility: 10mi
Dew Point: 41°   Wind: 8mph
Humidity: 57%   Direction: 350°N
Pressure: 30.05"   Gusts: NA
Location:  38.72°N, 75.08°W
Report Text: KGED 301454Z AUTO 35007KT 300V020 10SM BKN070 13/05 A3005 RMK AO2 SLP174 T01330050 51010 $
Loading
Personal Weather Stations






























Interactive Weather Map New forecast layout! Learn more

10-Day Weather Forecast

Advertisements
Track Severe Weather on mobile